Latest Weather Observations for Nuriootpa

IDS60901

Issued at 10:31 pm CDT Monday 22 December 2014 (issued every 10 minutes, with the page automatically refreshed every 10 minutes)

About weather observations | Map of Adelaide area stations | Latest observations for Adelaide area | Other Formats
Station Details ID: 023373 Name: NURIOOTPA VITICULTURAL Lat: -34.48 Lon: 139.01 Height: 275.0 m
Data from the previous 72 hours. | See also: Recent months at Nuriootpa
Date/Time
CDT
Tmp

°C
App
Tmp
°C
Dew
Point
°C
Rel
Hum
%
Delta-T

°C
Wind Press
QNH
hPa
Press
MSL
hPa
Rain
since
9 am
mm
Dir
 
Spd
km/h
Gust
km/h
Spd
kts
Gust
kts
22/10:30pm 17.4 19.7 16.7 96 0.4 CALM 0 0 0 0 1009.9 1009.0 2.4
22/10:00pm 17.5 19.4 16.8 96 0.4 NE 2 6 1 3 1009.9 1009.0 2.4
22/09:30pm 17.8 19.0 16.8 94 0.6 NE 6 9 3 5 1009.9 1009.0 2.4
22/09:00pm 18.4 19.5 17.1 92 0.8 NE 7 9 4 5 1009.7 1008.8 2.4
22/08:30pm 18.5 19.6 17.2 92 0.8 WSW 7 9 4 5 1009.2 1008.3 2.4
22/08:00pm 18.6 20.5 16.6 88 1.2 SE 2 9 1 5 1008.2 1007.3 2.4
22/07:30pm 18.7 19.3 16.7 88 1.2 ENE 9 13 5 7 1008.6 1007.7 2.4
22/07:00pm 18.6 20.3 17.1 91 0.9 E 4 13 2 7 1008.7 1007.8 2.4
22/06:30pm 19.5 18.1 16.5 83 1.8 WSW 19 28 10 15 1009.9 1009.0 0.4
22/06:00pm 21.6 21.9 15.1 66 3.9 W 7 13 4 7 1009.1 1008.2 0.2
22/05:30pm 21.6 22.8 16.0 70 3.4 S 4 9 2 5 1008.5 1007.6 0.2
22/05:00pm 22.1 21.5 14.7 63 4.4 WSW 11 15 6 8 1008.8 1007.9 0.0
22/04:30pm 22.5 21.4 14.3 59 4.9 WSW 13 20 7 11 1009.1 1008.2 0.0
22/04:00pm 22.6 21.5 14.2 59 5.0 W 13 19 7 10 1009.0 1008.1 0.0
22/03:30pm 22.5 23.2 15.6 65 4.2 NNW 6 13 3 7 1008.7 1007.8 0.0
22/03:00pm 21.9 22.7 15.8 68 3.7 ESE 6 9 3 5 1008.0 1007.1 0.0
22/02:30pm 21.2 20.7 15.8 71 3.3 SSE 13 20 7 11 1008.3 1007.4 0.0
22/02:00pm 22.6 21.6 15.5 64 4.3 WSW 15 22 8 12 1010.1 1009.2 0.0
22/01:30pm 23.8 21.5 14.1 54 5.8 W 19 28 10 15 1011.1 1010.2 0.0
22/01:00pm 23.8 22.4 14.5 56 5.6 W 15 24 8 13 1011.0 1010.1 0.0
22/12:30pm 23.4 20.4 15.9 62 4.6 W 26 37 14 20 1011.3 1010.4 0.0
22/12:00pm 23.8 21.4 13.7 53 6.0 WSW 19 30 10 16 1010.6 1009.7 0.0
22/11:30am 23.5 20.7 12.7 50 6.3 WSW 19 26 10 14 1010.5 1009.6 0.0
22/11:00am 23.6 21.7 11.9 47 6.7 SW 13 26 7 14 1009.2 1008.3 0.0
22/10:30am 25.3 22.7 9.2 36 8.9 W 13 20 7 11 1009.1 1008.2 0.0
22/10:00am 24.6 23.6 11.1 42 7.7 NE 7 11 4 6 1008.4 1007.5 0.0
22/09:30am 24.4 22.0 10.1 40 8.0 NE 13 19 7 10 1008.4 1007.5 0.0
22/09:00am 24.1 21.6 9.7 40 8.0 NE 13 19 7 10 1008.5 1007.6 0.0
22/08:30am 24.0 21.8 9.3 39 8.1 NE 11 19 6 10 1008.2 1007.3 0.0
22/08:00am 22.9 21.0 9.1 41 7.5 E 9 13 5 7 1008.1 1007.2 0.0
22/07:30am 21.7 20.6 10.5 49 6.2 NE 7 9 4 5 1007.8 1006.9 0.0
22/07:00am 19.9 18.3 8.8 48 5.9 N 7 11 4 6 1007.6 1006.7 0.0
22/06:30am 19.4 17.3 8.2 48 5.9 NNE 9 13 5 7 1007.7 1006.8 0.0
22/06:00am 19.3 17.2 8.3 49 5.8 ENE 9 52 5 28 1007.6 1006.7 0.0
22/05:30am 18.1 15.9 7.9 51 5.3 NE 9 11 5 6 1007.5 1006.6 0.0
22/05:00am 18.3 16.2 8.1 51 5.3 ENE 9 11 5 6 1007.6 1006.7 0.0
22/04:30am 18.3 17.9 8.1 51 5.3 CALM 0 0 0 0 1007.8 1006.9 0.0
22/04:00am 18.0 16.6 8.7 54 4.9 ESE 6 9 3 5 1007.8 1006.9 0.0
22/03:30am 19.5 17.1 6.8 43 6.5 ESE 9 13 5 7 1008.0 1007.1 0.0
22/03:00am 20.8 19.3 6.9 40 7.2 NE 4 11 2 6 1008.3 1007.4 0.0
22/02:30am 23.8 21.5 5.5 30 9.4 NNE 7 9 4 5 1008.9 1008.0 0.0
22/02:00am 24.4 22.0 5.3 29 9.8 NW 7 15 4 8 1009.1 1008.2 0.0
22/01:30am 24.2 22.0 5.3 29 9.7 E 6 9 3 5 1008.9 1008.0 0.0
22/01:00am 24.5 21.3 5.2 28 9.9 ESE 11 17 6 9 1009.0 1008.1 0.0
22/12:30am 25.0 21.0 4.8 27 10.3 ESE 15 22 8 12 1009.3 1008.4 0.0
22/12:00am 24.8 22.1 5.4 28 10.0 ESE 9 15 5 8 1010.0 1009.1 0.0
 
Date/Time
CDT
Tmp

°C
App
Tmp
°C
Dew
Point
°C
Rel
Hum
%
Delta-T

°C
Wind Press
QNH
hPa
Press
MSL
hPa
Rain
since
9 am
mm
Dir
 
Spd
km/h
Gust
km/h
Spd
kts
Gust
kts
21/11:30pm 25.1 23.0 6.5 30 9.8 NE 7 15 4 8 1010.8 1009.9 0.0
21/11:00pm 24.4 22.0 7.0 32 9.2 NE 9 11 5 6 1010.8 1009.9 0.0
21/10:30pm 24.9 23.0 7.5 33 9.3 NNW 7 15 4 8 1011.1 1010.2 0.0
21/10:00pm 24.6 21.1 7.3 33 9.2 E 15 26 8 14 1010.9 1010.0 0.0
21/09:30pm 25.0 21.9 7.1 32 9.5 ESE 13 24 7 13 1010.8 1009.9 0.0
21/09:00pm 25.5 21.9 8.2 33 9.4 SE 17 24 9 13 1010.5 1009.6 0.0
21/08:30pm 26.3 22.9 9.2 34 9.5 SE 17 24 9 13 1010.2 1009.3 0.0
21/08:00pm 27.6 24.4 8.6 30 10.5 SE 15 24 8 13 1010.1 1009.2 0.0
21/07:30pm 28.4 24.9 8.9 29 10.9 SE 17 24 9 13 1009.9 1009.0 0.0
21/07:00pm 29.4 25.9 8.6 27 11.6 SE 17 28 9 15 1009.8 1008.9 0.0
21/06:30pm 31.3 27.0 6.8 21 13.4 SE 19 30 10 16 1009.5 1008.6 0.0
21/06:00pm 32.5 27.7 5.4 18 14.6 ESE 20 28 11 15 1009.3 1008.4 0.0
21/05:30pm 33.6 29.4 5.7 17 15.2 SE 17 24 9 13 1009.5 1008.6 0.0
21/05:00pm 34.6 30.3 -1.5 10 17.6 WSW 11 17 6 9 1009.6 1008.7 0.0
21/04:30pm 35.2 30.5 -1.7 9 18.0 SW 13 20 7 11 1009.9 1009.0 0.0
21/04:00pm 33.2 26.8 -1.7 10 16.8 WSW 22 30 12 16 1010.2 1009.3 0.0
21/03:30pm 34.8 28.4 -4.7 8 18.3 WSW 20 30 11 16 1010.2 1009.3 0.0
21/03:00pm 34.9 29.6 -6.9 6 18.7 WNW 13 26 7 14 1010.3 1009.4 0.0
21/02:30pm 34.6 28.4 -4.8 8 18.2 W 19 28 10 15 1011.0 1010.1 0.0
21/02:00pm 35.5 30.9 -1.3 9 18.1 SW 13 26 7 14 1011.1 1010.2 0.0
21/01:30pm 34.9 28.0 -6.3 7 18.6 WNW 22 33 12 18 1011.7 1010.8 0.0
21/01:00pm 34.2 29.7 -3.4 9 17.7 NW 11 20 6 11 1012.0 1011.1 0.0
21/12:30pm 33.3 27.4 -2.5 10 17.0 WNW 19 30 10 16 1012.3 1011.4 0.0
21/12:00pm 34.0 28.9 -1.9 10 17.3 NW 15 26 8 14 1012.6 1011.7 0.0
21/11:30am 33.7 28.3 -1.3 10 17.0 NW 17 28 9 15 1012.5 1011.6 0.0
21/11:00am 32.3 26.9 -1.0 12 16.1 NW 17 26 9 14 1012.8 1011.9 0.0
21/10:30am 31.8 26.1 0.3 13 15.5 N 20 35 11 19 1012.9 1012.0 0.0
21/10:00am 30.8 25.9 2.0 16 14.5 N 17 26 9 14 1012.9 1012.0 0.0
21/09:30am 29.3 23.7 1.3 16 13.8 NNE 20 32 11 17 1013.2 1012.3 0.0
21/09:00am 28.6 23.3 1.6 17 13.3 N 19 28 10 15 1013.3 1012.4 0.0
21/08:30am 26.8 24.5 7.3 29 10.5 NE 9 13 5 7 1013.4 1012.5 0.0
21/08:00am 23.9 21.2 7.5 35 8.7 ENE 11 15 6 8 1013.2 1012.3 0.0
21/07:30am 21.5 18.9 7.8 41 7.2 NE 11 17 6 9 1013.2 1012.3 0.0
21/07:00am 19.1 16.6 8.4 50 5.6 NE 11 13 6 7 1013.0 1012.1 0.0
21/06:30am 17.1 14.6 8.2 56 4.6 NE 11 15 6 8 1012.8 1011.9 0.0
21/06:00am 16.2 13.7 8.2 59 4.1 NE 11 13 6 7 1012.6 1011.7 0.0
21/05:30am 15.4 13.4 8.6 64 3.5 NE 9 11 5 6 1012.7 1011.8 0.0
21/05:00am 16.0 13.6 8.7 62 3.8 NE 11 13 6 7 1012.6 1011.7 0.0
21/04:30am 16.5 14.1 8.6 59 4.1 NE 11 15 6 8 1012.5 1011.6 0.0
21/04:00am 16.2 13.8 8.7 61 3.9 NE 11 13 6 7 1012.7 1011.8 0.0
21/03:30am 15.2 13.8 9.7 69 2.9 NE 7 9 4 5 1012.5 1011.6 0.0
21/03:00am 15.6 14.4 9.7 68 3.1 NNE 6 9 3 5 1012.9 1012.0 0.0
21/02:30am 17.6 15.8 9.3 58 4.4 ESE 9 13 5 7 1013.4 1012.5 0.0
21/02:00am 18.4 16.9 9.2 55 4.9 E 7 11 4 6 1013.4 1012.5 0.0
21/01:30am 18.6 17.2 9.4 55 4.9 NE 7 13 4 7 1013.6 1012.8 0.0
21/01:00am 18.7 15.0 9.3 54 5.0 ESE 19 26 10 14 1013.5 1012.6 0.0
21/12:30am 19.0 15.6 9.3 53 5.2 ESE 17 26 9 14 1013.6 1012.8 0.0
21/12:00am 19.3 15.6 9.4 52 5.3 ESE 19 28 10 15 1013.8 1013.0 0.0
 
Date/Time
CDT
Tmp

°C
App
Tmp
°C
Dew
Point
°C
Rel
Hum
%
Delta-T

°C
Wind Press
QNH
hPa
Press
MSL
hPa
Rain
since
9 am
mm
Dir
 
Spd
km/h
Gust
km/h
Spd
kts
Gust
kts
20/11:30pm 19.6 16.3 9.6 52 5.4 ESE 17 28 9 15 1014.0 1013.2 0.0
20/11:00pm 20.1 16.9 9.8 51 5.6 SE 17 26 9 14 1014.4 1013.5 0.0
20/10:30pm 20.5 17.6 9.8 50 5.8 SE 15 22 8 12 1014.6 1013.7 0.0
20/10:00pm 21.2 18.0 9.8 48 6.2 SE 17 24 9 13 1014.8 1013.9 0.0
20/09:30pm 21.7 19.6 9.8 46 6.5 SSE 11 17 6 9 1014.9 1014.0 0.0
20/09:00pm 23.0 20.3 9.0 41 7.6 SSE 13 20 7 11 1014.9 1014.0 0.0
20/08:30pm 24.2 21.0 8.5 36 8.5 SE 15 22 8 12 1014.5 1013.6 0.0
20/08:00pm 26.4 23.5 6.6 28 10.5 S 11 17 6 9 1014.3 1013.4 0.0
20/07:30pm 28.0 24.3 4.3 22 12.2 SSW 13 17 7 9 1013.8 1013.0 0.0
20/07:00pm 28.2 23.5 3.3 20 12.6 SW 17 22 9 12 1013.7 1012.9 0.0
20/06:30pm 28.8 24.0 4.5 21 12.6 SW 19 28 10 15 1013.7 1012.9 0.0
20/06:00pm 29.2 24.5 5.0 21 12.7 WSW 19 28 10 15 1013.7 1012.9 0.0
20/05:30pm 29.7 25.0 5.3 21 12.9 WSW 19 26 10 14 1013.6 1012.8 0.0
20/05:00pm 30.0 26.5 1.3 16 14.2 W 9 20 5 11 1013.9 1013.1 0.0
20/04:30pm 30.0 27.1 2.4 17 13.9 NW 7 17 4 9 1014.1 1013.3 0.0
20/04:00pm 29.6 26.4 3.0 18 13.5 SW 9 19 5 10 1014.7 1013.8 0.0
20/03:30pm 29.1 25.1 2.7 18 13.3 WSW 13 20 7 11 1015.0 1014.1 0.0
20/03:00pm 29.5 26.1 4.2 20 13.1 WSW 11 20 6 11 1015.5 1014.6 0.0
20/02:30pm 28.7 25.8 4.6 21 12.5 NE 9 13 5 7 1016.1 1015.2 0.0
20/02:00pm 28.1 25.2 4.4 22 12.2 SSW 9 19 5 10 1016.6 1015.7 0.0
20/01:30pm 26.7 23.2 3.7 22 11.6 WSW 11 19 6 10 1017.1 1016.3 0.0
20/01:00pm 25.7 22.8 4.4 25 10.8 NNE 9 15 5 8 1017.6 1016.8 0.0
20/12:30pm 25.5 22.2 4.7 26 10.6 NW 11 17 6 9 1017.9 1017.1 0.0
20/12:00pm 23.7 20.8 4.9 29 9.5 NNW 9 19 5 10 1018.4 1017.5 0.0
20/11:30am 22.7 20.0 5.6 33 8.7 NE 9 19 5 10 1018.9 1018.0 0.0
20/11:00am 21.4 18.0 5.8 36 7.9 NE 13 19 7 10 1019.3 1018.4 0.0
20/10:30am 20.6 17.2 5.9 38 7.4 E 13 20 7 11 1019.3 1018.4 0.0
20/10:00am 19.3 15.9 5.9 41 6.7 NE 13 20 7 11 1019.8 1018.9 0.0
20/09:30am 17.9 13.9 6.5 47 5.7 ENE 17 22 9 12 1020.0 1019.2 0.0
20/09:00am 17.1 13.3 7.4 53 4.9 ENE 17 24 9 13 1020.2 1019.4 0.0
20/08:30am 16.4 12.6 7.7 56 4.4 E 17 20 9 11 1020.0 1019.2 0.0
20/08:00am 15.3 12.0 8.2 62 3.6 ENE 15 22 8 12 1020.0 1019.2 0.0
20/07:30am 14.1 11.7 8.6 69 2.8 E 11 19 6 10 1019.8 1018.9 0.0
20/07:00am 13.0 10.2 8.7 75 2.2 E 13 20 7 11 1019.6 1018.7 0.0
20/06:30am 11.5 9.9 8.9 84 1.3 NE 7 17 4 9 1019.5 1018.6 0.0
20/06:00am 11.1 8.7 8.5 84 1.3 NE 11 15 6 8 1019.2 1018.3 0.0
20/05:30am 11.2 8.8 8.6 84 1.3 ENE 11 15 6 8 1019.2 1018.3 0.0
20/05:00am 11.6 10.0 8.6 82 1.5 ENE 7 13 4 7 1018.8 1017.9 0.0
20/04:30am 11.7 9.7 8.7 82 1.5 E 9 15 5 8 1018.7 1017.8 0.0
20/04:00am 11.8 9.4 8.6 81 1.6 E 11 17 6 9 1018.7 1017.8 0.0
20/03:30am 11.9 9.9 8.5 80 1.7 ESE 9 19 5 10 1018.8 1017.9 0.0
20/03:00am 12.0 9.6 8.6 80 1.7 ESE 11 19 6 10 1018.9 1018.0 0.0
20/02:30am 12.2 9.8 8.6 78 1.8 ESE 11 20 6 11 1019.0 1018.1 0.0
20/02:00am 12.3 10.3 8.7 79 1.8 E 9 15 5 8 1019.6 1018.7 0.0
20/01:30am 12.6 10.3 8.9 78 1.9 ESE 11 17 6 9 1019.8 1018.9 0.0
20/01:00am 12.9 9.0 8.8 76 2.1 SE 19 26 10 14 1019.9 1019.1 0.0
20/12:30am 13.0 9.5 8.9 76 2.1 SE 17 24 9 13 1020.2 1019.4 0.0
20/12:00am 13.3 10.2 8.8 74 2.3 SE 15 22 8 12 1020.5 1019.7 0.0
 
Date/Time
CDT
Tmp

°C
App
Tmp
°C
Dew
Point
°C
Rel
Hum
%
Delta-T

°C
Wind Press
QNH
hPa
Press
MSL
hPa
Rain
since
9 am
mm
Dir
 
Spd
km/h
Gust
km/h
Spd
kts
Gust
kts
19/11:30pm 13.5 10.0 8.6 72 2.5 SE 17 26 9 14 1020.6 1019.8 0.0
19/11:00pm 13.7 9.5 8.1 69 2.8 SE 20 30 11 16 1020.8 1020.0 0.0

Latest Capital City Observations: Canberra | Sydney | Melbourne | Brisbane | Adelaide | Perth | Hobart | Darwin

Other Formats:

Comma delimited format used in spreadsheet applications
http://www.bom.gov.au/fwo/IDS60901/IDS60901.94681.axf

JavaScript Object Notation format (JSON) in row-major order
http://www.bom.gov.au/fwo/IDS60901/IDS60901.94681.json